LIPZ Información de aeropuertos

Información de pistas
Pista 04L Longitud 9121 ft Ancho 148 ft
Elevación 7 ft Umbral 308 ft Rumbo 42
Pista 22R Longitud 9121 ft Ancho 148 ft
Elevación 7 ft Umbral 0 ft Rumbo 222
Pista 04R Longitud 10827 ft Ancho 148 ft
Elevación 7 ft Umbral 0 ft Rumbo 42
Pista 22L Longitud 10827 ft Ancho 148 ft
Elevación 7 ft Umbral 0 ft Rumbo 222
Frecuencias
Tipo APP Nombre APP Frequencia 118.9 MHZ
Tipo ATIS Nombre ATIS Frequencia 122.225 MHZ
Tipo GND Nombre GND Frequencia 121.7 MHZ
Tipo TWR Nombre TWR Frequencia 120.2 MHZ
Radioayudas
Tipo VOR-DME Nombre Tessera Frequencia 115300 KHZ
Tipo NDB Nombre Venezia Frequencia 379 KHZ
Información meteorológica y NOTAM
ADDS - METARS form results

(0248 UTC 20 January 2021)
Data provider http://aviationweather.gov/metar/data/
 
METAR text: LIPZ 200220Z 03004KT 4000 BR BKN040 M00/M02 Q1023 NOSIG
Conditions at: LIPZ (VENEZIA/TESSERA , IT) observed 0220 UTC 20 January 2021
Temperature: 0.0°C (32°F)
Dewpoint: -2.0°C (28°F) [RH = 86%]
Pressure (altimeter): 30.21 inches Hg (1023.0 mb)
Winds: from the NNE (30 degrees) at 5 MPH (4 knots; 2.1 m/s)
Visibility: 2.49 miles (4.01 km)
Ceiling: 4000 feet AGL
Clouds: broken clouds at 4000 feet AGL
Weather: BR  (mist)

METAR text: LIPZ 200150Z 36004KT 4000 BR BKN040 M00/M02 Q1023 NOSIG
Conditions at: LIPZ (VENEZIA/TESSERA , IT) observed 0150 UTC 20 January 2021
Temperature: 0.0°C (32°F)
Dewpoint: -2.0°C (28°F) [RH = 86%]
Pressure (altimeter): 30.21 inches Hg (1023.0 mb)
Winds: from the N (360 degrees) at 5 MPH (4 knots; 2.1 m/s)
Visibility: 2.49 miles (4.01 km)
Ceiling: 4000 feet AGL
Clouds: broken clouds at 4000 feet AGL
Weather: BR  (mist)

Forecast for: LIPZ (VENEZIA/TESSERA , IT)
Text: TAF LIPZ 192300Z 2000/2106 VRB03KT 5000 BR BKN050
Forecast period: 0000 to 0900 UTC 20 January 2021
Forecast type: FROM: standard forecast or significant change
Winds: variable direction winds at 3 MPH (3 knots; 1.5 m/s)
Visibility: 3 miles (5 km)
Ceiling: 5000 feet AGL
Clouds: broken clouds at 5000 feet AGL
Weather: BR  (mist)
Text: BECMG 2009/2011 8000
Forecast period: 0900 UTC 20 January 2021 to 0600 UTC 21 January 2021
Forecast type: BECOMING: Conditions expected to become as follows by 1100 UTC 20 January 2021
Winds: variable direction winds at 3 MPH (3 knots; 1.5 m/s)
Visibility: 5 miles (8 km)
Ceiling: 5000 feet AGL
Clouds: broken clouds at 5000 feet AGL
Weather: BR  (mist)
Text: TEMPO 2016/2022 RA
Forecast period: 1600 to 2200 UTC 20 January 2021
Forecast type: TEMPORARY: The following changes expected for less than half the time period
Visibility: missing
Ceiling: unknown
Clouds: missing
Weather: RA  (moderate rain)
Text: TEMPO 2022/2106 3000 BR
Forecast period: 2200 UTC 20 January 2021 to 0600 UTC 21 January 2021
Forecast type: TEMPORARY: The following changes expected for less than half the time period
Visibility: 1.86 miles (2.99 km)
Ceiling: unknown
Clouds: missing
Weather: BR  (mist)